Time;durP1;ratioP1;P1;durP2;ratioP2;P2;SDS_P1;SDS_P2;PMS_P1;PMS_P2;Temp;Humidity;BMP_temperature;BMP_pressure;BME280_temperature;BME280_humidity;BME280_pressure;Samples;Min_cycle;Max_cycle;Signal;HPM_P1;HPM_P2
2022/03/22 00:01:50;;;;;;;27.30;13.30;;;;;;;0.70;47.80;98668.02;107989;1270;42458;-74
2022/03/22 00:04:21;;;;;;;31.20;16.40;;;;;;;0.84;47.11;98670.48;107942;1270;53282;-74
2022/03/22 00:06:52;;;;;;;27.10;13.90;;;;;;;0.72;47.93;98669.71;107967;1270;44992;-74
2022/03/22 00:09:25;;;;;;;24.20;14.30;;;;;;;0.64;47.25;98671.81;108080;1270;32773;-74
2022/03/22 00:11:56;;;;;;;22.70;12.20;;;;;;;0.71;47.62;98670.21;108045;1270;37157;-74
2022/03/22 00:14:27;;;;;;;19.10;10.90;;;;;;;0.78;47.17;98670.36;108024;1270;36120;-74
2022/03/22 00:16:58;;;;;;;18.40;11.10;;;;;;;0.92;46.66;98669.27;108019;1270;41276;-74
2022/03/22 00:19:29;;;;;;;24.10;12.50;;;;;;;1.14;46.51;98670.29;107978;1270;38265;-73
2022/03/22 00:22:00;;;;;;;30.10;14.20;;;;;;;1.13;46.17;98667.33;107999;1270;40726;-74
2022/03/22 00:24:31;;;;;;;21.90;12.90;;;;;;;1.05;46.28;98671.52;107980;1270;39264;-73
2022/03/22 00:27:02;;;;;;;23.90;13.60;;;;;;;1.04;46.17;98670.94;107922;1271;41807;-74
2022/03/22 00:29:32;;;;;;;22.30;12.40;;;;;;;1.02;46.21;98672.55;108029;1270;41286;-74
2022/03/22 00:32:08;;;;;;;43.60;22.30;;;;;;;1.03;46.44;98675.98;107985;1270;32090;-74
2022/03/22 00:34:44;;;;;;;29.20;17.40;;;;;;;0.90;47.00;98673.64;108014;1270;28996;-74
2022/03/22 00:37:17;;;;;;;26.50;16.10;;;;;;;0.88;46.62;98669.52;108116;1270;33120;-73
2022/03/22 00:39:48;;;;;;;34.50;21.40;;;;;;;0.91;46.62;98672.96;107983;1270;43061;-74
2022/03/22 00:42:19;;;;;;;32.40;19.30;;;;;;;0.73;46.84;98667.36;108040;1270;37688;-74
2022/03/22 00:44:49;;;;;;;37.90;18.90;;;;;;;0.61;47.16;98665.56;107961;1270;42893;-74
2022/03/22 00:47:20;;;;;;;23.30;12.80;;;;;;;0.61;47.29;98666.56;108050;1270;26619;-74
2022/03/22 00:49:51;;;;;;;19.50;11.40;;;;;;;0.82;47.27;98665.66;107971;1270;43483;-74
2022/03/22 00:52:21;;;;;;;20.10;11.50;;;;;;;1.08;46.76;98662.34;108028;1270;41431;-74
2022/03/22 00:54:54;;;;;;;20.20;11.10;;;;;;;1.12;46.29;98660.14;107979;1270;45605;-74
2022/03/22 00:57:26;;;;;;;17.30;10.80;;;;;;;1.15;46.10;98663.27;108025;1270;38660;-73
2022/03/22 01:00:04;;;;;;;29.30;14.30;;;;;;;1.20;45.85;98657.67;108002;1269;40650;-73
2022/03/22 01:02:37;;;;;;;32.70;15.60;;;;;;;1.16;46.39;98660.02;107944;1270;48154;-74
2022/03/22 01:05:13;;;;;;;31.90;15.70;;;;;;;1.10;46.20;98662.46;107981;1270;42135;-73
2022/03/22 01:07:46;;;;;;;38.10;19.90;;;;;;;0.85;47.40;98659.75;108042;1270;42900;-73
2022/03/22 01:10:18;;;;;;;23.80;13.30;;;;;;;0.72;47.47;98656.05;108061;1270;42266;-73
2022/03/22 01:12:50;;;;;;;24.20;13.80;;;;;;;0.83;47.59;98653.20;107991;1270;57804;-74
2022/03/22 01:15:23;;;;;;;23.20;13.30;;;;;;;0.75;48.14;98655.48;107942;1271;38965;-74
2022/03/22 01:17:55;;;;;;;16.60;11.00;;;;;;;0.66;47.83;98655.27;107994;1271;40097;-74
2022/03/22 01:20:26;;;;;;;18.40;11.50;;;;;;;0.70;47.75;98651.15;108000;1271;31282;-74
2022/03/22 01:22:57;;;;;;;24.30;14.80;;;;;;;0.87;47.60;98651.07;107996;1270;40618;-73
2022/03/22 01:25:28;;;;;;;21.40;13.00;;;;;;;0.70;48.00;98645.05;108050;1270;38242;-73
2022/03/22 01:28:00;;;;;;;21.60;12.10;;;;;;;0.58;47.95;98651.89;107935;1271;41375;-73
2022/03/22 01:30:32;;;;;;;27.00;13.30;;;;;;;0.62;47.99;98647.38;108022;1270;42589;-73
2022/03/22 01:33:03;;;;;;;46.30;20.70;;;;;;;0.46;48.74;98646.79;108012;1270;40781;-73
2022/03/22 01:35:34;;;;;;;33.70;17.60;;;;;;;0.27;48.68;98653.14;107989;1270;43407;-73
2022/03/22 01:38:05;;;;;;;27.90;15.00;;;;;;;0.21;49.34;98654.61;107996;1270;46067;-74
2022/03/22 01:40:36;;;;;;;29.40;15.60;;;;;;;0.25;49.58;98654.42;107937;1270;32355;-73
2022/03/22 01:43:07;;;;;;;25.70;14.70;;;;;;;0.36;49.24;98656.59;107976;1270;43773;-73
2022/03/22 01:45:40;;;;;;;21.40;13.30;;;;;;;0.41;49.30;98648.52;108014;1270;49446;-74
2022/03/22 01:48:11;;;;;;;21.90;11.90;;;;;;;0.45;48.96;98647.89;107982;1270;49434;-73
2022/03/22 01:50:43;;;;;;;23.50;13.50;;;;;;;0.38;49.05;98647.27;107998;1269;45592;-74
2022/03/22 01:53:14;;;;;;;24.70;14.40;;;;;;;0.27;49.19;98650.02;108022;1270;38302;-73
2022/03/22 01:55:45;;;;;;;30.50;16.70;;;;;;;0.17;49.86;98651.56;108005;1270;38790;-73
2022/03/22 01:58:16;;;;;;;26.60;14.90;;;;;;;0.11;50.05;98645.51;108043;1269;35136;-73
2022/03/22 02:05:51;;;;;;;20.80;12.20;;;;;;;0.11;49.87;98647.23;108118;1270;27034;-73
2022/03/22 02:06:27;;;;;;;19.80;11.10;;;;;;;0.24;49.74;98644.02;108024;1270;30941;-73
2022/03/22 02:08:59;;;;;;;26.00;12.60;;;;;;;0.26;49.63;98641.77;107650;1270;397861;-73
2022/03/22 02:11:30;;;;;;;24.00;13.80;;;;;;;0.11;50.33;98641.02;107965;1270;37953;-73
2022/03/22 02:14:00;;;;;;;23.70;12.50;;;;;;;0.03;50.41;98636.55;108037;1270;42599;-72
2022/03/22 02:16:31;;;;;;;24.60;13.60;;;;;;;0.15;50.76;98634.04;107980;1270;46705;-73
2022/03/22 02:19:02;;;;;;;22.90;13.50;;;;;;;0.24;50.04;98631.69;107987;1270;40552;-73
2022/03/22 02:21:36;;;;;;;21.30;13.00;;;;;;;0.19;49.88;98631.86;108013;1270;42939;-73
2022/03/22 02:24:08;;;;;;;20.20;12.80;;;;;;;0.14;50.23;98632.11;107980;1273;38395;-73
2022/03/22 02:26:41;;;;;;;27.00;13.20;;;;;;;0.11;50.41;98633.83;108026;1270;34635;-73
2022/03/22 02:29:12;;;;;;;16.90;10.20;;;;;;;0.01;51.27;98639.77;108000;1270;38514;-73
2022/03/22 02:31:42;;;;;;;18.70;12.60;;;;;;;-0.10;51.50;98637.89;108055;1270;44147;-73
2022/03/22 02:34:13;;;;;;;18.00;11.60;;;;;;;-0.15;51.03;98634.75;108041;1270;40918;-73
2022/03/22 02:36:44;;;;;;;17.90;10.60;;;;;;;-0.12;51.02;98632.42;108049;1270;39798;-73
2022/03/22 02:39:15;;;;;;;17.00;11.00;;;;;;;-0.09;50.60;98627.17;108092;1270;42079;-73
2022/03/22 02:41:48;;;;;;;17.30;10.30;;;;;;;-0.04;50.95;98627.92;108098;1267;28372;-73
2022/03/22 02:44:22;;;;;;;21.70;11.30;;;;;;;0.06;51.03;98624.48;108015;1270;44565;-73
2022/03/22 02:46:53;;;;;;;16.30;9.40;;;;;;;0.19;51.06;98622.34;108042;1270;26315;-73
2022/03/22 02:49:24;;;;;;;19.70;11.30;;;;;;;0.38;51.08;98624.85;107990;1270;34534;-74
2022/03/22 02:51:55;;;;;;;19.00;11.00;;;;;;;0.50;50.82;98625.66;108054;1270;29837;-74
2022/03/22 02:54:25;;;;;;;19.70;11.60;;;;;;;0.53;50.40;98625.78;107988;1270;38371;-74
2022/03/22 02:56:56;;;;;;;20.50;12.00;;;;;;;0.62;50.08;98633.25;107960;1270;43658;-74
2022/03/22 02:59:27;;;;;;;19.70;12.00;;;;;;;0.66;49.86;98630.33;108031;1270;39988;-74
2022/03/22 03:01:58;;;;;;;20.70;11.60;;;;;;;0.75;49.48;98631.99;108019;1270;41452;-74
2022/03/22 03:04:29;;;;;;;19.30;10.80;;;;;;;0.80;49.22;98635.08;108034;1270;38266;-74
2022/03/22 03:06:59;;;;;;;18.30;11.10;;;;;;;0.78;49.16;98636.23;107975;1270;46611;-74
2022/03/22 03:09:30;;;;;;;20.70;9.50;;;;;;;0.70;49.15;98637.64;107993;1270;45125;-74
2022/03/22 03:12:01;;;;;;;22.00;11.60;;;;;;;0.63;49.19;98641.44;108046;1270;43051;-74
2022/03/22 03:14:41;;;;;;;16.90;10.70;;;;;;;0.71;49.48;98648.80;107904;1270;42378;-74
2022/03/22 03:17:14;;;;;;;17.30;11.50;;;;;;;0.61;49.72;98641.66;107943;1273;37860;-73
2022/03/22 03:19:45;;;;;;;17.30;11.40;;;;;;;0.48;49.63;98640.31;107964;1271;43393;-73
2022/03/22 03:22:16;;;;;;;21.00;11.70;;;;;;;0.54;49.73;98641.34;108031;1270;38265;-73
2022/03/22 03:24:47;;;;;;;19.40;11.00;;;;;;;0.62;49.87;98641.93;108097;1270;30133;-73
2022/03/22 03:27:18;;;;;;;17.90;11.00;;;;;;;0.68;49.50;98638.36;108024;1270;40293;-74
2022/03/22 03:29:49;;;;;;;13.50;9.80;;;;;;;0.78;49.32;98640.89;107982;1270;40509;-74
2022/03/22 03:32:20;;;;;;;20.90;11.10;;;;;;;0.80;49.16;98639.75;107997;1270;50006;-73
2022/03/22 03:34:51;;;;;;;17.40;11.50;;;;;;;0.91;49.10;98643.42;107994;1270;41861;-73
2022/03/22 03:37:23;;;;;;;15.40;10.00;;;;;;;0.91;49.11;98644.13;108032;1270;34983;-73
2022/03/22 03:39:54;;;;;;;18.10;10.90;;;;;;;0.70;49.33;98644.27;108013;1270;44532;-73
2022/03/22 03:42:25;;;;;;;19.00;11.30;;;;;;;0.54;49.66;98652.14;108026;1270;40832;-73
2022/03/22 03:47:43;;;;;;;17.60;10.00;;;;;;;0.49;50.23;98648.72;108057;1270;37835;-73
2022/03/22 03:50:14;;;;;;;19.40;11.30;;;;;;;0.59;49.96;98646.11;108009;1270;41651;-73
2022/03/22 03:52:45;;;;;;;15.80;10.40;;;;;;;0.61;50.03;98645.48;107961;1272;41665;-73
2022/03/22 03:55:16;;;;;;;17.60;10.40;;;;;;;0.66;50.08;98649.61;107949;1271;42765;-73
2022/03/22 03:57:48;;;;;;;17.60;10.70;;;;;;;0.69;49.94;98650.03;107998;1270;42912;-73
2022/03/22 04:00:20;;;;;;;18.90;11.90;;;;;;;0.71;49.79;98651.05;107986;1270;31137;-73
2022/03/22 04:02:53;;;;;;;17.80;10.70;;;;;;;0.80;49.87;98653.74;108073;1270;40158;-73
2022/03/22 04:05:24;;;;;;;17.80;11.10;;;;;;;0.83;49.94;98652.89;108064;1270;37298;-73
2022/03/22 04:07:55;;;;;;;18.60;12.00;;;;;;;0.81;49.94;98654.30;107954;1270;42923;-73
2022/03/22 04:10:26;;;;;;;19.50;12.50;;;;;;;0.85;49.47;98660.27;107999;1267;29330;-73
2022/03/22 04:12:57;;;;;;;20.50;12.10;;;;;;;0.89;49.35;98664.41;107935;1271;43682;-73
2022/03/22 04:15:29;;;;;;;18.20;11.90;;;;;;;0.82;49.38;98663.11;108013;1270;28675;-73
2022/03/22 04:18:00;;;;;;;17.30;9.70;;;;;;;0.69;49.77;98666.03;107999;1270;46480;-72
2022/03/22 04:20:31;;;;;;;19.80;10.80;;;;;;;0.65;50.01;98669.30;107995;1270;37784;-73
2022/03/22 04:23:01;;;;;;;18.70;10.50;;;;;;;0.68;50.16;98670.34;107952;1270;42416;-73
2022/03/22 04:25:32;;;;;;;18.10;10.50;;;;;;;0.70;49.83;98672.06;107992;1270;36919;-73
2022/03/22 04:33:40;;;;;;;18.80;10.70;;;;;;;0.62;49.82;98679.91;107946;1270;34930;-73
2022/03/22 04:36:12;;;;;;;19.50;10.80;;;;;;;0.61;49.41;98684.48;107964;1270;43964;-74
2022/03/22 04:38:42;;;;;;;19.00;11.40;;;;;;;0.64;49.64;98686.62;107962;1270;39032;-73
2022/03/22 04:41:13;;;;;;;21.20;11.80;;;;;;;0.65;49.90;98680.13;108006;1270;44534;-73
2022/03/22 04:43:44;;;;;;;19.50;11.80;;;;;;;0.64;49.74;98684.89;108019;1270;50607;-73
2022/03/22 04:46:18;;;;;;;21.40;12.70;;;;;;;0.69;49.99;98679.09;108003;1270;42223;-73
2022/03/22 04:48:49;;;;;;;17.90;11.70;;;;;;;0.79;49.73;98684.61;107991;1270;38279;-74
2022/03/22 04:56:57;;;;;;;20.90;13.10;;;;;;;1.48;49.06;98683.74;107958;1270;40485;-73
2022/03/22 04:59:27;;;;;;;21.70;14.00;;;;;;;1.80;48.77;98681.38;107917;1271;30529;-73
2022/03/22 05:01:59;;;;;;;21.60;14.80;;;;;;;2.14;48.63;98680.11;107995;1270;46734;-73
2022/03/22 05:04:30;;;;;;;27.20;16.00;;;;;;;2.54;48.16;98680.69;107981;1270;34912;-73
2022/03/22 05:07:00;;;;;;;22.30;15.00;;;;;;;2.92;47.70;98682.87;108028;1270;31409;-73
2022/03/22 05:09:32;;;;;;;24.70;14.80;;;;;;;3.40;47.22;98679.52;108031;1270;40378;-73
2022/03/22 05:12:03;;;;;;;29.80;17.20;;;;;;;3.93;46.34;98677.65;108065;1270;30841;-73
2022/03/22 05:14:35;;;;;;;24.80;16.10;;;;;;;4.48;45.82;98668.76;108041;1270;42854;-73
2022/03/22 05:17:06;;;;;;;25.20;16.80;;;;;;;4.96;44.31;98668.37;108034;1270;30560;-73
2022/03/22 05:19:37;;;;;;;24.30;16.00;;;;;;;5.24;43.66;98668.23;108029;1270;39537;-73
2022/03/22 05:22:08;;;;;;;24.30;15.70;;;;;;;5.53;43.20;98662.11;108036;1270;42271;-73
2022/03/22 05:24:39;;;;;;;24.70;17.00;;;;;;;5.80;42.57;98663.54;107971;1270;42869;-73
2022/03/22 05:27:10;;;;;;;25.70;18.00;;;;;;;6.07;41.86;98662.88;108052;1270;30047;-73
2022/03/22 05:29:41;;;;;;;24.90;15.60;;;;;;;6.41;41.62;98661.80;108028;1270;32635;-73
2022/03/22 05:32:13;;;;;;;23.40;15.20;;;;;;;6.59;40.11;98661.59;107985;1270;44319;-73
2022/03/22 05:34:44;;;;;;;24.30;16.90;;;;;;;6.69;39.88;98660.30;108074;1270;40119;-73
2022/03/22 05:37:15;;;;;;;24.30;16.70;;;;;;;6.76;39.67;98658.06;108051;1270;37657;-73
2022/03/22 05:39:46;;;;;;;23.10;15.50;;;;;;;6.98;39.24;98659.47;108026;1270;39609;-73
2022/03/22 05:42:17;;;;;;;22.20;15.70;;;;;;;7.03;38.82;98663.04;108092;1270;40966;-73
2022/03/22 05:44:49;;;;;;;22.00;17.00;;;;;;;7.23;38.64;98664.79;108000;1270;41125;-75
2022/03/22 05:47:20;;;;;;;24.60;15.40;;;;;;;7.49;37.95;98664.73;108096;1270;33333;-74
2022/03/22 05:49:51;;;;;;;21.60;16.50;;;;;;;7.64;37.53;98666.75;108062;1270;43962;-74
2022/03/22 05:52:23;;;;;;;23.80;17.40;;;;;;;8.22;37.69;98661.29;107905;1271;39773;-73
2022/03/22 05:54:54;;;;;;;25.10;18.00;;;;;;;8.88;36.32;98662.38;108050;1270;41257;-73
2022/03/22 05:57:25;;;;;;;24.20;18.10;;;;;;;9.08;35.81;98661.11;108015;1270;44393;-73
2022/03/22 05:59:55;;;;;;;25.20;18.40;;;;;;;9.50;35.78;98667.06;107893;1270;45381;-74
2022/03/22 06:02:27;;;;;;;24.30;18.10;;;;;;;10.11;35.12;98662.80;108049;1270;34006;-73
2022/03/22 06:04:58;;;;;;;24.40;18.10;;;;;;;10.87;34.71;98663.13;108082;1270;28705;-73
2022/03/22 06:07:29;;;;;;;21.70;18.30;;;;;;;11.30;33.64;98665.60;108051;1270;40442;-73
2022/03/22 06:10:00;;;;;;;21.50;17.50;;;;;;;11.71;33.69;98665.73;108075;1270;33050;-73
2022/03/22 06:12:39;;;;;;;23.10;18.50;;;;;;;12.32;32.53;98673.16;108016;1270;37222;-73
2022/03/22 06:15:15;;;;;;;22.70;18.10;;;;;;;12.39;32.23;98668.07;108068;1270;49629;-74
2022/03/22 06:17:49;;;;;;;22.80;17.60;;;;;;;12.83;32.44;98671.80;108091;1270;42872;-74
2022/03/22 06:20:23;;;;;;;22.10;18.00;;;;;;;13.46;31.69;98669.13;107962;1271;29917;-74
2022/03/22 06:22:54;;;;;;;19.30;16.50;;;;;;;13.95;31.18;98671.02;108023;1270;39451;-73
2022/03/22 06:25:25;;;;;;;19.10;16.80;;;;;;;14.50;30.73;98674.23;107943;1271;40089;-74
2022/03/22 06:27:57;;;;;;;24.20;18.80;;;;;;;14.99;29.85;98669.80;107960;1270;26743;-74
2022/03/22 06:30:28;;;;;;;24.00;18.90;;;;;;;15.05;29.35;98674.13;108001;1270;42177;-74
2022/03/22 06:33:01;;;;;;;19.30;17.10;;;;;;;15.22;28.99;98674.67;108000;1270;47300;-74
2022/03/22 06:35:35;;;;;;;20.00;16.50;;;;;;;15.41;28.70;98676.18;108023;1270;30994;-74
2022/03/22 06:38:07;;;;;;;19.00;16.80;;;;;;;16.03;28.19;98677.56;108059;1270;39475;-74
2022/03/22 06:40:39;;;;;;;20.50;17.40;;;;;;;16.36;27.42;98675.73;108056;1270;29702;-74
2022/03/22 06:43:12;;;;;;;20.90;17.70;;;;;;;16.77;26.96;98678.80;108015;1271;39132;-74
2022/03/22 06:45:45;;;;;;;19.20;17.30;;;;;;;16.84;26.32;98683.73;107888;1271;37042;-74
2022/03/22 06:48:17;;;;;;;20.60;17.80;;;;;;;17.01;25.99;98681.48;108184;1270;37693;-74
2022/03/22 06:50:49;;;;;;;20.40;17.30;;;;;;;17.31;25.93;98677.91;108098;1270;38592;-74
2022/03/22 06:53:20;;;;;;;19.30;16.60;;;;;;;17.61;25.56;98682.19;108030;1270;51526;-75
2022/03/22 06:55:52;;;;;;;19.10;16.90;;;;;;;18.32;25.57;98680.67;108050;1270;41645;-74
2022/03/22 06:58:24;;;;;;;17.80;16.00;;;;;;;18.71;25.21;98678.55;108074;1270;30646;-74
2022/03/22 07:00:56;;;;;;;20.30;18.00;;;;;;;18.99;24.76;98675.13;108075;1270;43219;-74
2022/03/22 07:03:27;;;;;;;20.30;16.30;;;;;;;19.33;24.11;98678.99;107975;1271;30284;-74
2022/03/22 07:05:58;;;;;;;19.10;17.00;;;;;;;19.73;24.00;98679.98;107936;1271;41312;-74
2022/03/22 07:08:29;;;;;;;17.70;15.80;;;;;;;20.37;23.66;98684.96;107994;1270;43631;-74
2022/03/22 07:13:49;;;;;;;18.40;16.40;;;;;;;20.74;22.86;98683.78;108004;1268;39337;-74
2022/03/22 07:16:21;;;;;;;19.40;17.40;;;;;;;21.05;22.41;98684.47;108078;1270;40033;-75
2022/03/22 07:18:52;;;;;;;18.70;16.70;;;;;;;21.20;22.23;98684.77;107987;1271;35013;-75
2022/03/22 07:21:23;;;;;;;18.10;16.00;;;;;;;21.46;21.72;98684.52;108057;1271;34050;-74
2022/03/22 07:23:53;;;;;;;18.80;16.80;;;;;;;21.61;21.30;98686.34;108087;1270;26333;-75
2022/03/22 07:26:24;;;;;;;17.80;15.90;;;;;;;21.98;21.65;98687.89;108078;1270;41444;-75
2022/03/22 07:28:55;;;;;;;18.80;16.90;;;;;;;22.90;21.40;98687.17;108061;1270;29280;-75
2022/03/22 07:31:26;;;;;;;18.20;16.30;;;;;;;23.43;20.59;98683.06;108089;1270;41083;-75
2022/03/22 07:33:57;;;;;;;18.60;16.40;;;;;;;23.58;20.36;98684.40;108005;1270;42853;-75
2022/03/22 07:36:28;;;;;;;18.20;16.40;;;;;;;23.74;20.36;98687.79;108042;1270;38630;-75
2022/03/22 07:39:00;;;;;;;18.20;15.10;;;;;;;24.08;20.13;98688.55;108059;1270;42810;-75
2022/03/22 07:41:31;;;;;;;18.20;16.30;;;;;;;24.29;19.54;98691.15;108038;1270;35540;-74
2022/03/22 07:44:03;;;;;;;18.10;16.30;;;;;;;24.56;19.57;98691.41;108093;1270;39334;-75
2022/03/22 07:46:34;;;;;;;17.60;15.60;;;;;;;24.81;19.15;98694.16;108026;1270;37723;-75
2022/03/22 07:54:43;;;;;;;16.70;15.00;;;;;;;26.42;18.84;98687.74;108109;1270;30272;-75
2022/03/22 07:57:14;;;;;;;16.90;15.20;;;;;;;27.30;18.40;98687.30;108019;1270;43383;-76
2022/03/22 07:59:45;;;;;;;15.50;13.80;;;;;;;27.50;17.61;98687.18;107999;1271;31328;-75
2022/03/22 08:02:15;;;;;;;15.20;13.70;;;;;;;28.15;17.58;98683.29;108078;1270;38604;-75
2022/03/22 08:04:48;;;;;;;14.80;13.20;;;;;;;28.87;17.20;98689.34;108014;1271;38436;-75
2022/03/22 08:07:19;;;;;;;15.60;14.10;;;;;;;29.52;17.08;98685.61;107917;1271;41680;-77
2022/03/22 08:09:50;;;;;;;14.00;12.60;;;;;;;30.12;16.71;98684.10;108033;1270;40123;-76
2022/03/22 08:12:21;;;;;;;15.50;13.90;;;;;;;30.63;16.65;98680.05;108073;1270;25604;-76
2022/03/22 08:14:51;;;;;;;14.70;13.20;;;;;;;31.39;16.63;98680.02;107987;1271;40500;-76
2022/03/22 08:17:23;;;;;;;15.40;13.80;;;;;;;31.71;15.95;98677.67;107898;1271;42541;-75
2022/03/22 08:19:54;;;;;;;13.70;12.40;;;;;;;31.70;15.52;98676.80;107998;1271;37815;-76
2022/03/22 08:22:25;;;;;;;15.00;13.50;;;;;;;31.56;15.22;98676.64;108047;1271;46118;-76
2022/03/22 08:24:56;;;;;;;14.80;13.30;;;;;;;30.99;14.86;98676.93;108059;1271;44259;-75
2022/03/22 08:27:27;;;;;;;15.20;13.60;;;;;;;29.97;14.55;98677.33;108071;1271;34166;-76
2022/03/22 08:29:57;;;;;;;16.80;15.00;;;;;;;29.53;14.26;98676.02;108033;1271;39800;-75
2022/03/22 08:32:28;;;;;;;16.10;14.40;;;;;;;28.28;14.96;98674.58;108033;1271;34103;-75
2022/03/22 08:34:59;;;;;;;15.20;13.60;;;;;;;28.49;15.05;98674.21;108023;1271;38979;-75
2022/03/22 08:37:30;;;;;;;16.40;14.80;;;;;;;28.32;14.67;98673.79;107878;1271;48274;-75
2022/03/22 08:40:01;;;;;;;16.50;14.40;;;;;;;28.04;15.14;98677.42;107997;1271;40965;-75
2022/03/22 08:42:32;;;;;;;15.80;14.10;;;;;;;27.94;14.52;98672.96;108009;1271;32853;-75
2022/03/22 08:45:03;;;;;;;16.30;13.50;;;;;;;27.63;15.31;98674.30;108006;1271;43069;-75
2022/03/22 08:47:35;;;;;;;22.50;18.70;;;;;;;28.31;15.51;98670.02;108042;1271;30856;-75
2022/03/22 08:50:07;;;;;;;18.20;16.20;;;;;;;28.29;15.04;98671.21;108031;1271;40159;-75
2022/03/22 08:52:39;;;;;;;19.80;15.10;;;;;;;27.94;14.70;98666.36;107937;1271;40616;-75
2022/03/22 08:55:13;;;;;;;17.40;15.10;;;;;;;27.57;15.51;98667.91;108031;1271;44203;-74
2022/03/22 08:57:46;;;;;;;17.40;14.30;;;;;;;27.75;15.44;98663.66;108141;1270;29622;-75
2022/03/22 09:00:20;;;;;;;15.90;13.50;;;;;;;28.17;15.56;98659.20;108031;1271;40435;-74
2022/03/22 09:02:53;;;;;;;16.40;14.00;;;;;;;27.94;14.87;98661.38;107926;1271;41806;-75
2022/03/22 09:08:15;;;;;;;19.10;14.00;;;;;;;26.42;14.89;98661.18;107918;1271;43772;-74
2022/03/22 09:10:46;;;;;;;18.20;14.10;;;;;;;25.30;15.45;98662.09;108041;1271;29237;-74
2022/03/22 09:13:18;;;;;;;17.30;14.50;;;;;;;23.92;15.40;98663.77;108066;1271;38947;-74
2022/03/22 09:15:51;;;;;;;18.80;14.00;;;;;;;22.23;16.47;98659.73;107865;1271;42826;-75
2022/03/22 09:18:23;;;;;;;16.90;13.20;;;;;;;20.90;17.35;98663.46;107954;1271;48631;-74
2022/03/22 09:20:53;;;;;;;20.70;15.50;;;;;;;20.25;18.19;98657.58;107969;1271;45691;-74
2022/03/22 09:23:24;;;;;;;18.70;14.70;;;;;;;18.70;18.95;98655.96;107888;1271;40683;-75
2022/03/22 09:25:55;;;;;;;19.40;15.30;;;;;;;17.43;20.35;98659.80;107980;1271;42296;-74
2022/03/22 09:28:27;;;;;;;22.10;15.70;;;;;;;16.75;21.34;98658.55;107938;1271;40780;-74
2022/03/22 09:30:57;;;;;;;20.70;15.80;;;;;;;16.46;22.04;98657.70;107937;1271;40866;-74
2022/03/22 09:33:28;;;;;;;20.40;15.40;;;;;;;16.45;22.54;98651.92;107919;1271;71865;-74
2022/03/22 09:35:59;;;;;;;23.50;17.50;;;;;;;16.73;22.96;98655.60;107867;1272;38972;-74
2022/03/22 09:38:31;;;;;;;21.40;16.40;;;;;;;17.00;23.00;98652.02;107924;1271;39414;-74
2022/03/22 09:41:02;;;;;;;22.70;17.50;;;;;;;17.14;23.22;98649.10;107877;1274;31780;-74
2022/03/22 09:43:37;;;;;;;27.00;19.20;;;;;;;17.45;23.75;98646.04;107925;1271;41315;-74
2022/03/22 09:46:10;;;;;;;24.60;19.40;;;;;;;17.58;23.65;98645.55;107903;1273;40471;-74
2022/03/22 09:48:41;;;;;;;24.10;18.40;;;;;;;17.55;23.60;98644.28;107934;1271;33937;-74
2022/03/22 09:54:01;;;;;;;24.70;17.60;;;;;;;16.70;23.45;98647.66;107901;1271;41977;-74
2022/03/22 09:56:32;;;;;;;24.90;19.00;;;;;;;16.23;24.32;98646.10;107962;1271;27139;-73
2022/03/22 09:59:04;;;;;;;26.80;19.60;;;;;;;16.44;24.67;98644.42;107878;1272;47824;-74
2022/03/22 10:01:36;;;;;;;21.70;16.40;;;;;;;16.15;24.82;98648.05;107921;1274;45670;-74
2022/03/22 10:04:09;;;;;;;23.70;17.90;;;;;;;16.13;24.83;98649.92;107912;1271;37741;-74
2022/03/22 10:06:46;;;;;;;24.90;19.00;;;;;;;16.32;25.44;98646.00;107906;1271;38869;-74
2022/03/22 10:09:27;;;;;;;26.80;19.70;;;;;;;16.28;24.71;98640.42;107965;1271;48365;-74
2022/03/22 10:11:58;;;;;;;24.40;19.00;;;;;;;15.82;25.62;98640.70;107891;1271;41989;-74
2022/03/22 10:14:39;;;;;;;24.50;19.90;;;;;;;16.13;25.65;98636.81;107871;1271;103950;-74
2022/03/22 10:17:15;;;;;;;24.90;19.30;;;;;;;16.27;25.58;98635.62;107904;1271;37416;-74
2022/03/22 10:19:48;;;;;;;27.40;20.70;;;;;;;16.37;25.54;98634.55;107859;1274;36583;-74
2022/03/22 10:22:25;;;;;;;24.80;19.60;;;;;;;16.35;25.51;98635.30;107947;1271;30368;-75
2022/03/22 10:24:58;;;;;;;23.40;19.00;;;;;;;16.25;25.57;98635.67;107862;1271;76773;-74
2022/03/22 10:27:31;;;;;;;26.00;19.50;;;;;;;16.04;25.58;98633.20;108014;1271;41650;-74
2022/03/22 10:30:07;;;;;;;29.30;21.00;;;;;;;15.94;25.98;98631.70;107893;1271;44196;-75
2022/03/22 10:32:40;;;;;;;28.20;20.30;;;;;;;15.67;25.90;98636.61;107909;1273;37048;-74
2022/03/22 10:35:16;;;;;;;26.50;19.60;;;;;;;15.53;26.12;98633.27;107802;1274;86573;-74
2022/03/22 10:37:49;;;;;;;27.20;18.90;;;;;;;15.49;26.22;98633.30;107917;1272;125481;-75
2022/03/22 10:40:29;;;;;;;27.10;20.90;;;;;;;15.44;26.91;98634.92;107867;1271;73188;-75
2022/03/22 10:43:02;;;;;;;29.80;22.30;;;;;;;15.70;26.70;98634.16;107903;1273;47407;-75
2022/03/22 10:45:44;;;;;;;29.00;21.90;;;;;;;15.71;27.27;98629.04;107957;1271;36377;-74
2022/03/22 10:48:18;;;;;;;29.80;22.60;;;;;;;16.13;27.45;98623.23;107940;1271;96701;-74
2022/03/22 10:50:51;;;;;;;33.40;22.00;;;;;;;16.49;27.28;98620.65;107896;1273;37575;-75
2022/03/22 10:53:24;;;;;;;26.60;21.20;;;;;;;16.80;27.21;98613.72;107941;1271;69529;-74
2022/03/22 10:55:57;;;;;;;31.90;22.10;;;;;;;17.02;26.99;98611.23;107881;1271;43011;-74
2022/03/22 10:58:30;;;;;;;31.50;22.00;;;;;;;17.10;26.62;98610.62;107900;1271;48235;-74
2022/03/22 11:01:02;;;;;;;28.30;22.50;;;;;;;17.07;26.54;98606.73;107851;1271;49513;-74
2022/03/22 11:03:34;;;;;;;27.60;20.40;;;;;;;16.91;26.38;98606.84;107838;1271;81373;-75
2022/03/22 11:06:06;;;;;;;30.60;23.10;;;;;;;16.49;26.59;98608.27;107871;1273;42756;-75
2022/03/22 11:08:40;;;;;;;29.50;21.40;;;;;;;16.51;27.33;98609.41;107892;1271;34056;-74
2022/03/22 11:11:12;;;;;;;32.30;23.20;;;;;;;16.55;26.51;98606.52;107922;1271;37736;-74
2022/03/22 11:13:43;;;;;;;31.10;23.60;;;;;;;16.03;26.97;98602.92;107870;1273;41863;-74
2022/03/22 11:16:15;;;;;;;30.90;21.80;;;;;;;15.97;27.29;98606.65;107879;1271;45455;-75
2022/03/22 11:18:46;;;;;;;31.20;22.10;;;;;;;16.04;27.46;98599.98;107867;1273;58812;-74
2022/03/22 11:21:21;;;;;;;35.80;23.30;;;;;;;16.05;27.23;98599.08;107992;1270;40561;-75
2022/03/22 11:23:52;;;;;;;32.40;22.40;;;;;;;15.96;27.28;98595.52;107883;1271;43238;-75
2022/03/22 11:26:27;;;;;;;37.70;24.00;;;;;;;15.84;27.46;98595.86;107895;1271;47179;-76
2022/03/22 11:28:59;;;;;;;30.80;22.30;;;;;;;15.68;27.73;98591.86;107812;1273;53727;-75
2022/03/22 11:31:30;;;;;;;32.00;23.60;;;;;;;15.89;27.94;98591.02;107895;1271;32113;-75
2022/03/22 11:34:12;;;;;;;30.90;22.70;;;;;;;16.14;27.81;98586.63;107841;1271;59470;-75
2022/03/22 11:36:47;;;;;;;30.30;22.90;;;;;;;16.32;27.81;98580.70;107895;1271;44916;-75
2022/03/22 11:42:15;;;;;;;32.00;24.50;;;;;;;16.48;27.63;98577.13;107962;1270;39800;-75
2022/03/22 11:42:19;;;;;;;35.30;24.00;;;;;;;16.49;27.53;98573.33;107985;1270;41648;-75
2022/03/22 11:44:59;;;;;;;32.50;23.70;;;;;;;16.51;27.61;98570.70;107888;1273;41300;-75
2022/03/22 11:47:40;;;;;;;33.90;23.40;;;;;;;16.79;28.09;98570.27;107945;1270;44655;-75
2022/03/22 11:50:17;;;;;;;32.20;22.20;;;;;;;17.06;28.02;98567.10;107843;1273;41463;-75
2022/03/22 11:52:50;;;;;;;32.60;23.70;;;;;;;17.24;28.02;98569.63;107913;1273;40060;-75
2022/03/22 11:55:23;;;;;;;29.50;22.20;;;;;;;17.35;27.95;98560.10;107924;1271;40822;-75
2022/03/22 11:57:58;;;;;;;29.50;23.70;;;;;;;17.50;27.52;98558.39;107895;1271;34044;-75
2022/03/22 12:00:44;;;;;;;31.10;22.60;;;;;;;17.56;27.44;98554.16;107949;1270;30305;-75
2022/03/22 12:03:17;;;;;;;32.80;20.90;;;;;;;17.66;27.14;98548.97;107895;1273;29403;-75
2022/03/22 12:05:48;;;;;;;27.40;20.00;;;;;;;17.63;27.16;98547.17;107964;1271;55921;-75